NCAR-RAP Real-Time Weather Data

Output produced by METARs form (17 December 2018  08:07 UTC)
found at http://weather.rap.ucar.edu/surface/
 
Conditions at: KBKV observed 17 December 2018  07:53 UTC
Temperature: 10.6°C (51°F)
Dewpoint: 8.3°C (47°F) [RH = 86%]
Pressure (altimeter): 30.16 inches Hg (1021.4 mb)
[Sea-level pressure: 1021.2 mb]
Winds: from the NNW (340 degrees) at 3 MPH (3 knots; 1.6 m/s)
Visibility: 10 or more miles (16+ km)
Ceiling: 2600 feet AGL
Clouds: overcast cloud deck at 2600 feet AGL
Present Weather: automated observation with no human augmentation;
there may or may not be significant weather present at this time
KBKV 170753Z AUTO 34003KT 10SM OVC026 11/08 A3016 RMK AO2 SLP212 T01060083

Conditions at: KBKV observed 17 December 2018  06:53 UTC
Temperature: 10.6°C (51°F)
Dewpoint: 8.3°C (47°F) [RH = 86%]
Pressure (altimeter): 30.16 inches Hg (1021.4 mb)
[Sea-level pressure: 1021.2 mb]
Winds: from the NNW (340 degrees) at 5 MPH (4 knots; 2.1 m/s)
Visibility: 10 or more miles (16+ km)
Ceiling: 2200 feet AGL
Clouds: overcast cloud deck at 2200 feet AGL
Present Weather: automated observation with no human augmentation;
there may or may not be significant weather present at this time
KBKV 170653Z AUTO 34004KT 10SM OVC022 11/08 A3016 RMK AO2 SLP212 T01060083

Conditions at: KBKV observed 17 December 2018  06:32 UTC
Temperature: 10.0°C (50°F)
Dewpoint: 8.3°C (47°F) [RH = 89%]
Pressure (altimeter): 30.16 inches Hg (1021.4 mb)
Winds: from the N (350 degrees) at 5 MPH (4 knots; 2.1 m/s)
Visibility: 10 or more miles (16+ km)
Ceiling: 2200 feet AGL
Clouds: broken clouds at 2200 feet AGL
Present Weather: automated observation with no human augmentation;
there may or may not be significant weather present at this time
KBKV 170632Z AUTO 35004KT 10SM BKN022 10/08 A3016 RMK AO2 T01000083

Conditions at: KBKV observed 17 December 2018  06:00 UTC
Temperature: 10.6°C (51°F)
Dewpoint: 8.3°C (47°F) [RH = 86%]
Pressure (altimeter): 30.16 inches Hg (1021.4 mb)
Winds: from the N (360 degrees) at 7 MPH (6 knots; 3.1 m/s)
Visibility: 10 or more miles (16+ km)
Ceiling: at least 12,000 feet AGL
Clouds: scattered clouds at 2200 feet AGL
Present Weather: automated observation with no human augmentation;
there may or may not be significant weather present at this time
KBKV 170600Z AUTO 36006KT 10SM SCT022 11/08 A3016 RMK AO2 T01060083

Conditions at: KBKV observed 17 December 2018  05:53 UTC
Temperature: 10.6°C (51°F)
Dewpoint: 8.3°C (47°F) [RH = 86%]
Pressure (altimeter): 30.16 inches Hg (1021.4 mb)
[Sea-level pressure: 1021.0 mb]
Winds: from the N (10 degrees) at 7 MPH (6 knots; 3.1 m/s)
Visibility: 10 or more miles (16+ km)
Ceiling: 2200 feet AGL
Clouds: broken clouds at 2200 feet AGL
Present Weather: automated observation with no human augmentation;
there may or may not be significant weather present at this time
KBKV 170553Z AUTO 01006KT 10SM BKN022 11/08 A3016 RMK AO2 SLP210 T01060083 10156 20100 58003

Conditions at: KBKV observed 17 December 2018  04:53 UTC
Temperature: 12.2°C (54°F)
Dewpoint: 10.6°C (51°F) [RH = 90%]
Pressure (altimeter): 30.17 inches Hg (1021.8 mb)
[Sea-level pressure: 1021.4 mb]
Winds: from the N (360 degrees) at 5 MPH (4 knots; 2.1 m/s)
Visibility: 10 or more miles (16+ km)
Ceiling: 2300 feet AGL
Clouds: overcast cloud deck at 2300 feet AGL
Present Weather: automated observation with no human augmentation;
there may or may not be significant weather present at this time
KBKV 170453Z AUTO 36004KT 10SM OVC023 12/11 A3017 RMK AO2 SLP214 T01220106 402110100

Conditions at: KBKV observed 17 December 2018  04:25 UTC
Temperature: 11.1°C (52°F)
Dewpoint: 10.0°C (50°F) [RH = 93%]
Pressure (altimeter): 30.17 inches Hg (1021.8 mb)
Winds: calm
Visibility: 10 or more miles (16+ km)
Ceiling: 2300 feet AGL
Clouds: broken clouds at 2300 feet AGL
Present Weather: automated observation with no human augmentation;
there may or may not be significant weather present at this time
KBKV 170425Z AUTO 00000KT 10SM BKN023 11/10 A3017 RMK AO2 T01110100

Conditions at: KBKV observed 17 December 2018  03:53 UTC
Temperature: 11.1°C (52°F)
Dewpoint: 10.0°C (50°F) [RH = 93%]
Pressure (altimeter): 30.17 inches Hg (1021.8 mb)
[Sea-level pressure: 1021.6 mb]
Winds: calm
Visibility: 10 or more miles (16+ km)
Ceiling: at least 12,000 feet AGL
Clouds: sky clear below 12,000 feet AGL
Present Weather: automated observation with no human augmentation;
there may or may not be significant weather present at this time
KBKV 170353Z AUTO 00000KT 10SM CLR 11/10 A3017 RMK AO2 SLP216 T01110100

Conditions at: KBKV observed 17 December 2018  02:53 UTC
Temperature: 10.6°C (51°F)
Dewpoint: 9.4°C (49°F) [RH = 92%]
Pressure (altimeter): 30.17 inches Hg (1021.8 mb)
[Sea-level pressure: 1021.3 mb]
Winds: from the WNW (300 degrees) at 5 MPH (4 knots; 2.1 m/s)
Visibility: 10 or more miles (16+ km)
Ceiling: at least 12,000 feet AGL
Clouds: sky clear below 12,000 feet AGL
Present Weather: automated observation with no human augmentation;
there may or may not be significant weather present at this time
KBKV 170253Z AUTO 30004KT 10SM CLR 11/09 A3017 RMK AO2 SLP213 T01060094 51006

Conditions at: KBKV observed 17 December 2018  01:53 UTC
Temperature: 13.9°C (57°F)
Dewpoint: 10.0°C (50°F) [RH = 77%]
Pressure (altimeter): 30.16 inches Hg (1021.4 mb)
[Sea-level pressure: 1021.2 mb]
Winds: from the WNW (300 degrees) at 7 MPH (6 knots; 3.1 m/s)
Visibility: 10 or more miles (16+ km)
Ceiling: at least 12,000 feet AGL
Clouds: few clouds at 2400 feet AGL
Present Weather: no significant weather observed at this time
KBKV 170153Z 30006KT 10SM FEW024 14/10 A3016 RMK AO2 SLP212 T01390100

Conditions at: KBKV observed 17 December 2018  01:40 UTC
Temperature: 13.9°C (57°F)
Dewpoint: 10.6°C (51°F) [RH = 80%]
Pressure (altimeter): 30.16 inches Hg (1021.4 mb)
Winds: from the WNW (290 degrees) at 7 MPH (6 knots; 3.1 m/s)
Visibility: 10 or more miles (16+ km)
Ceiling: at least 12,000 feet AGL
Clouds: scattered clouds at 2300 feet AGL
Present Weather: no significant weather observed at this time
KBKV 170140Z 29006KT 10SM SCT023 14/11 A3016 RMK AO2 T01390106

Conditions at: KBKV observed 17 December 2018  00:53 UTC
Temperature: 15.6°C (60°F)
Dewpoint: 10.6°C (51°F) [RH = 72%]
Pressure (altimeter): 30.15 inches Hg (1021.1 mb)
[Sea-level pressure: 1021.0 mb]
Winds: from the NW (310 degrees) at 9 MPH (8 knots; 4.2 m/s)
Visibility: 10 or more miles (16+ km)
Ceiling: 2300 feet AGL
Clouds: overcast cloud deck at 2300 feet AGL
Present Weather: no significant weather observed at this time
KBKV 170053Z 31008KT 10SM OVC023 16/11 A3015 RMK AO2 SLP210 T01560106

Conditions at: KBKV observed 16 December 2018  23:53 UTC
Temperature: 15.0°C (59°F)
Dewpoint: 10.6°C (51°F) [RH = 75%]
Pressure (altimeter): 30.15 inches Hg (1021.1 mb)
[Sea-level pressure: 1020.8 mb]
Winds: from the NW (310 degrees) at 6 MPH (5 knots; 2.6 m/s)
Visibility: 10 or more miles (16+ km)
Ceiling: 2300 feet AGL
Clouds: overcast cloud deck at 2300 feet AGL
Present Weather: no significant weather observed at this time
KBKV 162353Z 31005KT 10SM OVC023 15/11 A3015 RMK AO2 SLP208 T01500106 10211 20144 51014

Conditions at: KBKV observed 16 December 2018  23:01 UTC
Temperature: 15.0°C (59°F)
Dewpoint: 10.0°C (50°F) [RH = 72%]
Pressure (altimeter): 30.14 inches Hg (1020.7 mb)
Winds: from the W (280 degrees) at 7 MPH (6 knots; 3.1 m/s)
Visibility: 10 or more miles (16+ km)
Ceiling: 2600 feet AGL
Clouds: broken clouds at 2600 feet AGL
Present Weather: no significant weather observed at this time
KBKV 162301Z 28006KT 10SM BKN026 15/10 A3014 RMK AO2 T01500100

Conditions at: KBKV observed 16 December 2018  22:53 UTC
Temperature: 15.0°C (59°F)
Dewpoint: 10.0°C (50°F) [RH = 72%]
Pressure (altimeter): 30.14 inches Hg (1020.7 mb)
[Sea-level pressure: 1020.5 mb]
Winds: from the WNW (290 degrees) at 7 MPH (6 knots; 3.1 m/s)
Visibility: 10 or more miles (16+ km)
Ceiling: at least 12,000 feet AGL
Clouds: scattered clouds at 2600 feet AGL
Present Weather: no significant weather observed at this time
KBKV 162253Z 29006KT 10SM SCT026 15/10 A3014 RMK AO2 SLP205 T01500100

Conditions at: KBKV observed 16 December 2018  21:53 UTC
Temperature: 16.7°C (62°F)
Dewpoint: 9.4°C (49°F) [RH = 62%]
Pressure (altimeter): 30.13 inches Hg (1020.4 mb)
[Sea-level pressure: 1020.0 mb]
Winds: from the WNW (300 degrees) at 14 MPH (12 knots; 6.2 m/s)
Visibility: 10 or more miles (16+ km)
Ceiling: at least 12,000 feet AGL
Clouds: sky clear below 12,000 feet AGL
Present Weather: no significant weather observed at this time
KBKV 162153Z 30012KT 10SM CLR 17/09 A3013 RMK AO2 SLP200 T01670094

Conditions at: KBKV observed 16 December 2018  20:53 UTC
Temperature: 18.9°C (66°F)
Dewpoint: 10.6°C (51°F) [RH = 59%]
Pressure (altimeter): 30.11 inches Hg (1019.7 mb)
[Sea-level pressure: 1019.4 mb]
Winds: from the WNW (290 degrees) at 14 MPH (12 knots; 6.2 m/s)
Visibility: 10 or more miles (16+ km)
Ceiling: at least 12,000 feet AGL
Clouds: sky clear below 12,000 feet AGL
Present Weather: no significant weather observed at this time
KBKV 162053Z 29012KT 10SM CLR 19/11 A3011 RMK AO2 SLP194 T01890106 55003

Conditions at: KBKV observed 16 December 2018  19:53 UTC
Temperature: 19.4°C (67°F)
Dewpoint: 11.1°C (52°F) [RH = 59%]
Pressure (altimeter): 30.09 inches Hg (1019.0 mb)
[Sea-level pressure: 1018.9 mb]
Winds: from the WNW (300 degrees) at 13 MPH (11 knots; 5.7 m/s)
Visibility: 10 or more miles (16+ km)
Ceiling: at least 12,000 feet AGL
Clouds: few clouds at 5000 feet AGL
Present Weather: no significant weather observed at this time
KBKV 161953Z 30011KT 10SM FEW050 19/11 A3009 RMK AO2 SLP189 T01940111

Conditions at: KBKV observed 16 December 2018  18:53 UTC
Temperature: 20.6°C (69°F)
Dewpoint: 12.2°C (54°F) [RH = 59%]
Pressure (altimeter): 30.09 inches Hg (1019.0 mb)
[Sea-level pressure: 1018.8 mb]
Winds: from the W (280 degrees) at 14 MPH (12 knots; 6.2 m/s)
gusting to 28 MPH (24 knots; 12.5 m/s)
Visibility: 10 or more miles (16+ km)
Ceiling: at least 12,000 feet AGL
Clouds: sky clear below 12,000 feet AGL
Present Weather: no significant weather observed at this time
KBKV 161853Z 28012G24KT 10SM CLR 21/12 A3009 RMK AO2 SLP188 T02060122

Conditions at: KBKV observed 16 December 2018  18:28 UTC
Temperature: 20.6°C (69°F)
Dewpoint: 12.2°C (54°F) [RH = 59%]
Pressure (altimeter): 30.10 inches Hg (1019.4 mb)
Winds: from the WNW (300 degrees) at 14 MPH (12 knots; 6.2 m/s)
Visibility: 10 or more miles (16+ km)
Ceiling: at least 12,000 feet AGL
Clouds: scattered clouds at 2600 feet AGL
scattered clouds at 3200 feet AGL
Present Weather: no significant weather observed at this time
KBKV 161828Z 30012KT 10SM SCT026 SCT032 21/12 A3010 RMK AO2 T02060122

Conditions at: KBKV observed 16 December 2018  18:21 UTC
Temperature: 20.6°C (69°F)
Dewpoint: 12.8°C (55°F) [RH = 61%]
Pressure (altimeter): 30.10 inches Hg (1019.4 mb)
Winds: from the NW (320 degrees) at 8 MPH (7 knots; 3.6 m/s)
Visibility: 10 or more miles (16+ km)
Ceiling: 2700 feet AGL
Clouds: broken clouds at 2700 feet AGL
broken clouds at 4000 feet AGL
Present Weather: no significant weather observed at this time
KBKV 161821Z 32007KT 10SM BKN027 BKN040 21/13 A3010 RMK AO2 T02060128

Conditions at: KBKV observed 16 December 2018  17:53 UTC
Temperature: 19.4°C (67°F)
Dewpoint: 13.3°C (56°F) [RH = 68%]
Pressure (altimeter): 30.12 inches Hg (1020.1 mb)
[Sea-level pressure: 1019.6 mb]
Winds: from the NW (320 degrees) at 5 MPH (4 knots; 2.1 m/s)
Visibility: 10 or more miles (16+ km)
Ceiling: at least 12,000 feet AGL
Clouds: scattered clouds at 2100 feet AGL
Present Weather: no significant weather observed at this time
KBKV 161753Z 32004KT 10SM SCT021 19/13 A3012 RMK AO2 SLP196 T01940133 10194 20150 58025

Conditions at: KBKV observed 16 December 2018  16:53 UTC
Temperature: 17.8°C (64°F)
Dewpoint: 13.9°C (57°F) [RH = 78%]
Pressure (altimeter): 30.15 inches Hg (1021.1 mb)
[Sea-level pressure: 1020.9 mb]
Winds: variable direction winds at 3 MPH (3 knots; 1.6 m/s)
Visibility: 10 or more miles (16+ km)
Ceiling: 4600 feet AGL
Clouds: overcast cloud deck at 4600 feet AGL
Present Weather: no significant weather observed at this time
KBKV 161653Z VRB03KT 10SM OVC046 18/14 A3015 RMK AO2 SLP209 T01780139

Conditions at: KBKV observed 16 December 2018  16:04 UTC
Temperature: 17.2°C (63°F)
Dewpoint: 13.9°C (57°F) [RH = 81%]
Pressure (altimeter): 30.18 inches Hg (1022.1 mb)
Winds: from the NNW (340 degrees) at 5 MPH (4 knots; 2.1 m/s)
Visibility: 10 or more miles (16+ km)
Ceiling: 3500 feet AGL
Clouds: few clouds at 800 feet AGL
scattered clouds at 2700 feet AGL
overcast cloud deck at 3500 feet AGL
Present Weather: no significant weather observed at this time
KBKV 161604Z 34004KT 10SM FEW008 SCT027 OVC035 17/14 A3018 RMK AO2 T01720139

Conditions at: KBKV observed 16 December 2018  15:53 UTC
Temperature: 17.2°C (63°F)
Dewpoint: 14.4°C (58°F) [RH = 84%]
Pressure (altimeter): 30.18 inches Hg (1022.1 mb)
[Sea-level pressure: 1021.8 mb]
Winds: from the N (10 degrees) at 7 MPH (6 knots; 3.1 m/s)
Visibility: 10 or more miles (16+ km)
Ceiling: 2700 feet AGL
Clouds: scattered clouds at 900 feet AGL
broken clouds at 2700 feet AGL
overcast cloud deck at 3500 feet AGL
Present Weather: no significant weather observed at this time
KBKV 161553Z 01006KT 10SM SCT009 BKN027 OVC035 17/14 A3018 RMK AO2 SLP218 T01720144

Conditions at: KBKV observed 16 December 2018  15:33 UTC
Temperature: 16.7°C (62°F)
Dewpoint: 14.4°C (58°F) [RH = 86%]
Pressure (altimeter): 30.18 inches Hg (1022.1 mb)
Winds: from the N (10 degrees) at 7 MPH (6 knots; 3.1 m/s)
Visibility: 10 or more miles (16+ km)
Ceiling: 900 feet AGL
Clouds: broken clouds at 900 feet AGL
overcast cloud deck at 5500 feet AGL
Present Weather: no significant weather observed at this time
KBKV 161533Z 01006KT 10SM BKN009 OVC055 17/14 A3018 RMK AO2 T01670144

Conditions at: KBKV observed 16 December 2018  15:24 UTC
Temperature: 16.7°C (62°F)
Dewpoint: 14.4°C (58°F) [RH = 86%]
Pressure (altimeter): 30.19 inches Hg (1022.4 mb)
Winds: from the N (350 degrees) at 6 MPH (5 knots; 2.6 m/s)
Visibility: 10 or more miles (16+ km)
Ceiling: 2100 feet AGL
Clouds: scattered clouds at 900 feet AGL
broken clouds at 2100 feet AGL
overcast cloud deck at 5500 feet AGL
Present Weather: no significant weather observed at this time
KBKV 161524Z 35005KT 10SM SCT009 BKN021 OVC055 17/14 A3019 RMK AO2 T01670144

Conditions at: KBKV observed 16 December 2018  14:53 UTC
Temperature: 16.1°C (61°F)
Dewpoint: 13.9°C (57°F) [RH = 87%]
Pressure (altimeter): 30.19 inches Hg (1022.4 mb)
[Sea-level pressure: 1022.2 mb]
Winds: from the N (350 degrees) at 7 MPH (6 knots; 3.1 m/s)
Visibility: 10 or more miles (16+ km)
Ceiling: 3600 feet AGL
Clouds: few clouds at 2700 feet AGL
overcast cloud deck at 3600 feet AGL
Present Weather: no significant weather observed at this time
KBKV 161453Z 35006KT 10SM FEW027 OVC036 16/14 A3019 RMK AO2 SLP222 T01610139 53018

Conditions at: KBKV observed 16 December 2018  14:23 UTC
Temperature: 16.1°C (61°F)
Dewpoint: 15.0°C (59°F) [RH = 93%]
Pressure (altimeter): 30.18 inches Hg (1022.1 mb)
Winds: from the N (10 degrees) at 6 MPH (5 knots; 2.6 m/s)
Visibility: 10 or more miles (16+ km)
Ceiling: 3000 feet AGL
Clouds: scattered clouds at 2500 feet AGL
overcast cloud deck at 3000 feet AGL
Present Weather: no significant weather observed at this time
KBKV 161423Z 01005KT 10SM SCT025 OVC030 16/15 A3018 RMK AO2 T01610150

Conditions at: KBKV observed 16 December 2018  14:05 UTC
Temperature: 16.1°C (61°F)
Dewpoint: 15.0°C (59°F) [RH = 93%]
Pressure (altimeter): 30.17 inches Hg (1021.8 mb)
Winds: from the N (350 degrees) at 6 MPH (5 knots; 2.6 m/s)
Visibility: 10 or more miles (16+ km)
Ceiling: 2500 feet AGL
Clouds: few clouds at 1800 feet AGL
broken clouds at 2500 feet AGL
overcast cloud deck at 3200 feet AGL
Present Weather: no significant weather observed at this time
KBKV 161405Z 35005KT 10SM FEW018 BKN025 OVC032 16/15 A3017 RMK AO2 T01610150

Conditions at: KBKV observed 16 December 2018  13:53 UTC
Temperature: 16.1°C (61°F)
Dewpoint: 15.0°C (59°F) [RH = 93%]
Pressure (altimeter): 30.17 inches Hg (1021.8 mb)
[Sea-level pressure: 1021.5 mb]
Winds: from the N (350 degrees) at 6 MPH (5 knots; 2.6 m/s)
Visibility: 10 or more miles (16+ km)
Ceiling: 3000 feet AGL
Clouds: scattered clouds at 1900 feet AGL
broken clouds at 3000 feet AGL
overcast cloud deck at 3500 feet AGL
Present Weather: no significant weather observed at this time
KBKV 161353Z 35005KT 10SM SCT019 BKN030 OVC035 16/15 A3017 RMK AO2 SLP215 T01610150

Conditions at: KBKV observed 16 December 2018  13:34 UTC
Temperature: 16.1°C (61°F)
Dewpoint: 15.6°C (60°F) [RH = 97%]
Pressure (altimeter): 30.16 inches Hg (1021.4 mb)
Winds: from the N (350 degrees) at 3 MPH (3 knots; 1.6 m/s)
Visibility: 10 or more miles (16+ km)
Ceiling: 2300 feet AGL
Clouds: scattered clouds at 1900 feet AGL
broken clouds at 2300 feet AGL
overcast cloud deck at 6000 feet AGL
Present Weather: no significant weather observed at this time
KBKV 161334Z 35003KT 10SM SCT019 BKN023 OVC060 16/16 A3016 RMK AO2 T01610156

Conditions at: KBKV observed 16 December 2018  12:53 UTC
Temperature: 15.0°C (59°F)
Dewpoint: 15.0°C (59°F) [RH = 100%]
Pressure (altimeter): 30.15 inches Hg (1021.1 mb)
[Sea-level pressure: 1020.8 mb]
Winds: calm
Visibility: 7 miles (11 km)
Ceiling: 6000 feet AGL
Clouds: overcast cloud deck at 6000 feet AGL
Present Weather: no significant weather observed at this time
KBKV 161253Z 00000KT 7SM OVC060 15/15 A3015 RMK AO2 SLP208 T01500150

Conditions at: KBKV observed 16 December 2018  11:53 UTC
Temperature: 14.4°C (58°F)
Dewpoint: 13.9°C (57°F) [RH = 97%]
Pressure (altimeter): 30.14 inches Hg (1020.7 mb)
[Sea-level pressure: 1020.4 mb]
Winds: from the S (190 degrees) at 3 MPH (3 knots; 1.6 m/s)
Visibility: 6 miles (10 km)
Ceiling: 6500 feet AGL
Clouds: few clouds at 3200 feet AGL
overcast cloud deck at 6500 feet AGL
Present Weather: BR  (mist)
KBKV 161153Z 19003KT 6SM BR FEW032 OVC065 14/14 A3014 RMK AO2 SLP204 70012 T01440139 10150 20139 53017

Conditions at: KBKV observed 16 December 2018  10:53 UTC
Temperature: 14.4°C (58°F)
Dewpoint: 14.4°C (58°F) [RH = 100%]
Pressure (altimeter): 30.12 inches Hg (1020.1 mb)
[Sea-level pressure: 1019.7 mb]
Winds: from the W (280 degrees) at 3 MPH (3 knots; 1.6 m/s)
Visibility: 8 miles (13 km)
Ceiling: 6500 feet AGL
Clouds: overcast cloud deck at 6500 feet AGL
Present Weather: automated observation with no human augmentation;
there may or may not be significant weather present at this time
KBKV 161053Z AUTO 28003KT 8SM OVC065 14/14 A3012 RMK AO2 SLP197 T01440144

Conditions at: KBKV observed 16 December 2018  09:53 UTC
Temperature: 14.4°C (58°F)
Dewpoint: 14.4°C (58°F) [RH = 100%]
Pressure (altimeter): 30.10 inches Hg (1019.4 mb)
[Sea-level pressure: 1019.0 mb]
Winds: from the NNE (20 degrees) at 3 MPH (3 knots; 1.6 m/s)
Visibility: 10 or more miles (16+ km)
Ceiling: 6000 feet AGL
Clouds: overcast cloud deck at 6000 feet AGL
Present Weather: automated observation with no human augmentation;
there may or may not be significant weather present at this time
KBKV 160953Z AUTO 02003KT 10SM OVC060 14/14 A3010 RMK AO2 SLP190 T01440144

Conditions at: KBKV observed 16 December 2018  08:53 UTC
Temperature: 14.4°C (58°F)
Dewpoint: 14.4°C (58°F) [RH = 100%]
Pressure (altimeter): 30.09 inches Hg (1019.0 mb)
[Sea-level pressure: 1018.7 mb]
Winds: calm
Visibility: 8 miles (13 km)
Ceiling: 6000 feet AGL
Clouds: overcast cloud deck at 6000 feet AGL
Present Weather: automated observation with no human augmentation;
there may or may not be significant weather present at this time
KBKV 160853Z AUTO 00000KT 8SM OVC060 14/14 A3009 RMK AO2 SLP187 T01440144 50000